createdAt,value
2018-08-10T00:00:15.014Z,7.40
2018-08-10T00:02:43.447Z,8.57
2018-08-10T00:05:11.860Z,7.40
2018-08-10T00:07:40.213Z,8.07
2018-08-10T00:10:10.720Z,8.17
2018-08-10T00:12:39.091Z,11.43
2018-08-10T00:15:08.941Z,9.90
2018-08-10T00:17:38.059Z,7.23
2018-08-10T00:20:08.358Z,11.07
2018-08-10T00:22:36.717Z,6.93
2018-08-10T00:25:07.188Z,11.90
2018-08-10T00:27:35.505Z,11.60
2018-08-10T00:30:05.111Z,10.10
2018-08-10T00:32:33.463Z,10.10
2018-08-10T00:35:01.843Z,7.40
2018-08-10T00:37:30.347Z,10.50
2018-08-10T00:39:59.470Z,11.63
2018-08-10T00:42:27.971Z,7.47
2018-08-10T00:44:56.399Z,7.47
2018-08-10T00:47:25.031Z,9.40
2018-08-10T00:49:53.413Z,11.47
2018-08-10T00:52:21.776Z,11.10
2018-08-10T00:54:50.134Z,8.57
2018-08-10T00:57:18.427Z,9.20
2018-08-10T00:59:46.730Z,8.03
2018-08-10T01:02:15.396Z,7.77
2018-08-10T01:04:43.779Z,7.27
2018-08-10T01:07:12.150Z,11.63
2018-08-10T01:09:40.505Z,9.87
2018-08-10T01:12:08.822Z,7.87
2018-08-10T01:14:37.226Z,11.10
2018-08-10T01:17:06.312Z,11.33
2018-08-10T01:19:34.661Z,7.60
2018-08-10T01:22:03.043Z,10.07
2018-08-10T01:24:31.323Z,7.77
2018-08-10T01:26:59.821Z,8.87
2018-08-10T01:29:28.137Z,8.70
2018-08-10T01:31:56.884Z,6.40
2018-08-10T01:34:25.187Z,6.30
2018-08-10T01:36:53.582Z,7.80
2018-08-10T01:39:21.914Z,6.63
2018-08-10T01:41:50.327Z,8.10
2018-08-10T01:44:18.687Z,10.43
2018-08-10T01:46:46.981Z,6.17
2018-08-10T01:49:15.314Z,7.20
2018-08-10T01:51:44.339Z,9.30
2018-08-10T01:54:12.720Z,7.60
2018-08-10T01:56:41.280Z,9.53
2018-08-10T01:59:09.587Z,6.57
2018-08-10T02:01:37.992Z,6.93
2018-08-10T02:04:06.427Z,5.83
2018-08-10T02:06:34.803Z,7.27
2018-08-10T02:09:03.183Z,6.37
2018-08-10T02:11:31.509Z,6.67
2018-08-10T02:13:59.897Z,4.63
2018-08-10T02:16:30.941Z,5.83
2018-08-10T02:18:59.367Z,6.30
2018-08-10T02:21:27.679Z,6.03
2018-08-10T02:23:56.021Z,7.53
2018-08-10T02:26:24.491Z,7.30
2018-08-10T02:28:52.782Z,5.73
2018-08-10T02:31:21.214Z,7.03
2018-08-10T02:33:50.027Z,6.90
2018-08-10T02:36:18.401Z,6.37
2018-08-10T02:38:47.300Z,7.17
2018-08-10T02:41:15.888Z,6.30
2018-08-10T02:43:44.250Z,5.30
2018-08-10T02:46:12.624Z,6.17
2018-08-10T02:48:40.890Z,6.87
2018-08-10T02:51:09.144Z,4.97
2018-08-10T02:53:37.514Z,4.83
2018-08-10T02:56:06.283Z,6.13
2018-08-10T02:58:34.760Z,5.13
2018-08-10T03:01:06.494Z,4.77
2018-08-10T03:03:34.871Z,4.63
2018-08-10T03:06:03.240Z,5.73
2018-08-10T03:08:31.816Z,7.17
2018-08-10T03:11:00.131Z,5.33
2018-08-10T03:13:28.596Z,3.67
2018-08-10T03:15:56.925Z,4.27
2018-08-10T03:18:25.214Z,4.03
2018-08-10T03:20:53.590Z,3.60
2018-08-10T03:23:21.862Z,5.13
2018-08-10T03:25:50.196Z,5.87
2018-08-10T03:28:18.542Z,3.33
2018-08-10T03:30:46.966Z,5.17
2018-08-10T03:33:15.272Z,4.80
2018-08-10T03:35:43.600Z,4.20
2018-08-10T03:38:11.972Z,5.57
2018-08-10T03:40:40.243Z,4.20
2018-08-10T03:43:08.576Z,5.97
2018-08-10T03:45:37.101Z,4.30
2018-08-10T03:48:05.932Z,4.50
2018-08-10T03:50:34.362Z,4.67
2018-08-10T03:53:02.645Z,3.90
2018-08-10T03:55:31.027Z,3.87
2018-08-10T03:57:59.338Z,3.97
2018-08-10T04:00:27.732Z,7.23
2018-08-10T04:02:56.107Z,8.07
2018-08-10T04:05:24.489Z,3.07
2018-08-10T04:07:52.891Z,4.23
2018-08-10T04:10:21.343Z,4.20
2018-08-10T04:12:49.621Z,5.93
2018-08-10T04:15:17.954Z,5.27
2018-08-10T04:17:46.283Z,6.80
2018-08-10T04:20:14.660Z,3.97
2018-08-10T04:22:43.011Z,3.90
2018-08-10T04:25:11.387Z,8.67
2018-08-10T04:27:39.650Z,5.50
2018-08-10T04:30:09.347Z,3.90
2018-08-10T04:32:37.723Z,6.30
2018-08-10T04:35:06.091Z,8.17
2018-08-10T04:37:34.507Z,4.63
2018-08-10T04:40:02.874Z,7.67
2018-08-10T04:42:31.243Z,4.80
2018-08-10T04:44:59.574Z,3.33
2018-08-10T04:47:27.909Z,4.43
2018-08-10T04:49:56.166Z,4.70
2018-08-10T04:52:24.494Z,3.90
2018-08-10T04:54:52.830Z,4.37
2018-08-10T04:57:21.248Z,4.70
2018-08-10T04:59:49.613Z,4.53
2018-08-10T05:02:17.975Z,4.17
2018-08-10T05:04:46.282Z,5.10
2018-08-10T05:07:14.558Z,3.40
2018-08-10T05:09:42.965Z,4.33
2018-08-10T05:12:11.300Z,4.50
2018-08-10T05:14:39.634Z,4.33
2018-08-10T05:17:07.907Z,4.03
2018-08-10T05:19:36.848Z,3.07
2018-08-10T05:22:05.248Z,7.90
2018-08-10T05:24:33.637Z,2.27
2018-08-10T05:27:02.027Z,6.20
2018-08-10T05:29:30.314Z,3.73
2018-08-10T05:31:58.730Z,2.10
2018-08-10T05:34:27.125Z,4.10
2018-08-10T05:36:55.734Z,2.63
2018-08-10T05:39:24.039Z,3.87
2018-08-10T05:41:53.337Z,3.73
2018-08-10T05:44:21.742Z,5.83
2018-08-10T05:46:53.429Z,2.60
2018-08-10T05:49:21.742Z,4.17
2018-08-10T05:51:52.406Z,7.37
2018-08-10T05:54:20.732Z,2.47
2018-08-10T05:56:49.065Z,3.93
2018-08-10T05:59:17.357Z,3.23
2018-08-10T06:01:45.752Z,3.87
2018-08-10T06:04:14.127Z,2.50
2018-08-10T06:06:42.481Z,3.50
2018-08-10T06:09:43.376Z,3.13
2018-08-10T06:12:11.416Z,5.53
2018-08-10T06:14:39.776Z,3.80
2018-08-10T06:17:08.225Z,4.97
2018-08-10T06:19:36.628Z,2.30
2018-08-10T06:22:04.984Z,3.20
2018-08-10T06:24:34.260Z,8.47
2018-08-10T06:27:02.714Z,5.00
2018-08-10T06:29:31.086Z,1.77
2018-08-10T06:31:59.545Z,4.03
2018-08-10T06:34:27.929Z,2.53
2018-08-10T06:36:56.300Z,3.03
2018-08-10T06:39:24.595Z,3.83
2018-08-10T06:41:52.868Z,4.00
2018-08-10T06:44:21.276Z,2.03
2018-08-10T06:46:49.660Z,3.30
2018-08-10T06:49:17.999Z,5.33
2018-08-10T06:51:46.336Z,1.17
2018-08-10T06:54:14.691Z,3.50
2018-08-10T06:56:43.174Z,4.17
2018-08-10T06:59:11.707Z,3.60
2018-08-10T07:01:40.030Z,3.03
2018-08-10T07:04:08.346Z,2.03
2018-08-10T07:06:36.660Z,2.60
2018-08-10T07:09:08.055Z,6.33
2018-08-10T07:11:36.535Z,0.90
2018-08-10T07:14:04.946Z,4.30
2018-08-10T07:16:33.385Z,5.13
2018-08-10T07:19:01.777Z,3.67
2018-08-10T07:21:30.184Z,2.67
2018-08-10T07:23:58.574Z,3.47
2018-08-10T07:26:26.981Z,1.90
2018-08-10T07:28:55.470Z,1.67
2018-08-10T07:31:23.847Z,2.13
2018-08-10T07:33:52.267Z,1.63
2018-08-10T07:36:20.683Z,2.70
2018-08-10T07:38:49.054Z,2.47
2018-08-10T07:41:17.521Z,3.77
2018-08-10T07:43:46.071Z,2.20
2018-08-10T07:46:14.439Z,5.33
2018-08-10T07:48:47.291Z,4.30
2018-08-10T07:51:16.880Z,4.37
2018-08-10T07:53:45.728Z,5.50
2018-08-10T07:56:14.412Z,2.63
2018-08-10T07:58:42.868Z,1.10
2018-08-10T08:01:11.377Z,2.53
2018-08-10T08:03:39.941Z,2.53
2018-08-10T08:06:08.431Z,1.40
2018-08-10T08:08:36.917Z,3.13
2018-08-10T08:11:05.459Z,2.63
2018-08-10T08:13:33.824Z,4.17
2018-08-10T08:16:02.238Z,2.43
2018-08-10T08:18:30.562Z,0.80
2018-08-10T08:21:05.453Z,1.37
2018-08-10T08:23:34.037Z,0.93
2018-08-10T08:26:03.206Z,1.37
2018-08-10T08:28:32.032Z,1.50
2018-08-10T08:31:01.577Z,2.30
2018-08-10T08:33:30.030Z,2.63
2018-08-10T08:35:59.361Z,1.43
2018-08-10T08:38:39.585Z,1.63
2018-08-10T08:41:09.229Z,1.23
2018-08-10T08:46:08.231Z,1.87
2018-08-10T08:48:39.115Z,2.40
2018-08-10T08:51:09.811Z,1.70
2018-08-10T08:53:38.336Z,2.03
2018-08-10T08:56:09.529Z,3.43
2018-08-10T08:58:38.571Z,1.33
2018-08-10T09:01:07.815Z,1.70
2018-08-10T09:03:47.799Z,1.30
2018-08-10T09:06:16.152Z,2.87
2018-08-10T09:08:55.383Z,1.50
2018-08-10T09:11:23.721Z,1.67
2018-08-10T09:14:57.135Z,2.63
2018-08-10T09:17:25.604Z,1.23
2018-08-10T09:19:53.913Z,1.80
2018-08-10T09:22:22.313Z,1.60
2018-08-10T09:24:50.714Z,1.47
2018-08-10T09:27:19.022Z,4.67
2018-08-10T09:29:47.410Z,1.23
2018-08-10T09:32:15.902Z,1.47
2018-08-10T09:34:44.269Z,2.10
2018-08-10T09:37:12.595Z,2.40
2018-08-10T09:39:40.911Z,1.40
2018-08-10T09:42:09.386Z,3.27
2018-08-10T09:44:37.844Z,3.93
2018-08-10T09:47:06.954Z,1.23
2018-08-10T09:49:39.148Z,3.70
2018-08-10T09:52:07.620Z,2.47
2018-08-10T09:55:14.146Z,2.23
2018-08-10T09:57:42.510Z,6.67
2018-08-10T10:00:15.192Z,2.63
2018-08-10T10:02:53.383Z,1.20
2018-08-10T10:05:23.186Z,2.17
2018-08-10T10:07:51.527Z,3.27
2018-08-10T10:10:20.192Z,2.87
2018-08-10T10:12:48.652Z,1.63
2018-08-10T10:15:17.203Z,1.47
2018-08-10T10:17:45.529Z,2.80
2018-08-10T10:20:13.997Z,2.07
2018-08-10T10:22:42.462Z,3.93
2018-08-10T10:25:11.114Z,5.97
2018-08-10T10:27:39.403Z,4.77
2018-08-10T10:30:08.255Z,1.63
2018-08-10T10:32:36.767Z,2.47
2018-08-10T10:35:05.961Z,2.67
2018-08-10T10:37:34.543Z,3.47
2018-08-10T10:40:02.882Z,1.90
2018-08-10T10:42:31.351Z,2.57
2018-08-10T10:44:59.698Z,2.60
2018-08-10T10:47:28.104Z,4.87
2018-08-10T10:49:56.510Z,1.43
2018-08-10T10:52:24.916Z,8.37
2018-08-10T10:54:53.263Z,2.43
2018-08-10T10:57:21.609Z,2.90
2018-08-10T10:59:50.011Z,3.83
2018-08-10T11:02:18.366Z,2.90
2018-08-10T11:04:46.764Z,2.13
2018-08-10T11:07:15.083Z,5.90
2018-08-10T11:09:43.420Z,2.57
2018-08-10T11:12:11.734Z,3.07
2018-08-10T11:14:40.163Z,2.93
2018-08-10T11:17:08.734Z,3.80
2018-08-10T11:19:37.098Z,2.90
2018-08-10T11:22:05.611Z,2.90
2018-08-10T11:24:34.158Z,3.03
2018-08-10T11:27:02.570Z,2.13
2018-08-10T11:29:30.996Z,3.57
2018-08-10T11:31:59.389Z,2.13
2018-08-10T11:34:27.757Z,3.23
2018-08-10T11:36:56.066Z,4.67
2018-08-10T11:39:24.459Z,2.50
2018-08-10T11:41:52.812Z,4.57
2018-08-10T11:44:21.306Z,3.10
2018-08-10T11:46:49.774Z,3.37
2018-08-10T11:49:18.091Z,3.07
2018-08-10T11:51:46.509Z,2.57
2018-08-10T11:54:14.856Z,2.47
2018-08-10T11:56:43.295Z,2.37
2018-08-10T11:59:11.831Z,4.70
2018-08-10T12:01:40.296Z,4.07
2018-08-10T12:04:08.643Z,3.87
2018-08-10T12:06:36.995Z,2.30
2018-08-10T12:09:08.338Z,5.17
2018-08-10T12:11:37.186Z,1.97
2018-08-10T12:14:05.564Z,4.50
2018-08-10T12:16:33.951Z,4.23
2018-08-10T12:19:02.373Z,2.13
2018-08-10T12:21:31.299Z,3.23
2018-08-10T12:23:59.658Z,4.90
2018-08-10T12:26:28.141Z,1.90
2018-08-10T12:28:56.452Z,2.27
2018-08-10T12:31:24.879Z,2.20
2018-08-10T12:33:53.293Z,3.83
2018-08-10T12:36:21.659Z,2.63
2018-08-10T12:38:49.978Z,2.53
2018-08-10T12:41:18.341Z,3.07
2018-08-10T12:43:46.690Z,2.57
2018-08-10T12:46:15.085Z,2.63
2018-08-10T12:48:43.393Z,3.60
2018-08-10T12:51:11.729Z,1.30
2018-08-10T12:53:40.040Z,2.07
2018-08-10T12:56:08.389Z,3.60
2018-08-10T12:58:36.803Z,2.70
2018-08-10T13:01:05.147Z,1.93
2018-08-10T13:03:33.483Z,2.83
2018-08-10T13:06:01.782Z,1.90
2018-08-10T13:08:30.102Z,1.57
2018-08-10T13:10:58.407Z,2.47
2018-08-10T13:13:27.017Z,2.37
2018-08-10T13:15:55.472Z,2.77
2018-08-10T13:18:23.902Z,2.30
2018-08-10T13:20:52.242Z,3.00
2018-08-10T13:23:20.792Z,1.80
2018-08-10T13:25:49.210Z,3.00
2018-08-10T13:28:17.760Z,1.83
2018-08-10T13:30:46.289Z,2.27
2018-08-10T13:33:14.730Z,1.80
2018-08-10T13:35:43.267Z,3.40
2018-08-10T13:38:11.829Z,2.17
2018-08-10T13:40:40.357Z,3.27
2018-08-10T13:43:08.785Z,1.83
2018-08-10T13:45:37.143Z,1.37
2018-08-10T13:48:05.460Z,2.70
2018-08-10T13:50:33.791Z,1.57
2018-08-10T13:53:02.181Z,4.80
2018-08-10T13:55:30.578Z,4.40
2018-08-10T13:57:59.010Z,4.30
2018-08-10T14:00:27.360Z,6.47
2018-08-10T14:02:56.088Z,3.67
2018-08-10T14:05:25.127Z,3.37
2018-08-10T14:07:54.052Z,5.97
2018-08-10T14:10:22.795Z,1.70
2018-08-10T14:12:51.271Z,6.07
2018-08-10T14:15:19.822Z,4.33
2018-08-10T14:17:48.286Z,5.13
2018-08-10T14:20:16.683Z,4.77
2018-08-10T14:22:45.027Z,2.70
2018-08-10T14:25:13.415Z,2.40
2018-08-10T14:27:41.807Z,1.83
2018-08-10T14:30:13.544Z,3.90
2018-08-10T14:32:41.896Z,2.03
2018-08-10T14:35:10.426Z,3.87
2018-08-10T14:37:39.050Z,3.00
2018-08-10T14:40:09.472Z,3.07
2018-08-10T14:42:38.144Z,4.10
2018-08-10T14:45:09.371Z,2.23
2018-08-10T14:47:37.984Z,3.83
2018-08-10T14:50:08.395Z,2.17
2018-08-10T14:52:36.906Z,5.40
2018-08-10T14:55:06.138Z,3.50
2018-08-10T14:57:34.594Z,3.13
2018-08-10T15:00:03.086Z,4.90
2018-08-10T15:02:31.519Z,4.60
2018-08-10T15:05:00.953Z,2.13
2018-08-10T15:07:29.393Z,2.67
2018-08-10T15:09:58.076Z,4.87
2018-08-10T15:12:26.712Z,3.90
2018-08-10T15:14:55.127Z,4.53
2018-08-10T15:17:24.182Z,2.30
2018-08-10T15:19:52.615Z,1.83
2018-08-10T15:22:20.891Z,5.27
2018-08-10T15:24:50.082Z,3.67
2018-08-10T15:27:18.441Z,2.20
2018-08-10T15:29:46.906Z,3.10
2018-08-10T15:32:15.176Z,2.13
2018-08-10T15:34:43.584Z,1.93
2018-08-10T15:37:11.993Z,2.80
2018-08-10T15:39:40.401Z,2.97
2018-08-10T15:42:09.133Z,2.37
2018-08-10T15:44:37.575Z,1.53
2018-08-10T15:47:05.961Z,2.67
2018-08-10T15:49:34.512Z,2.47
2018-08-10T15:52:02.942Z,2.43
2018-08-10T15:54:31.315Z,2.77
2018-08-10T15:56:59.716Z,2.73
2018-08-10T15:59:28.125Z,6.03
2018-08-10T16:01:56.505Z,3.93
2018-08-10T16:04:24.972Z,4.87
2018-08-10T16:06:53.266Z,1.83
2018-08-10T16:09:21.822Z,2.87
2018-08-10T16:11:53.491Z,2.63
2018-08-10T16:14:22.003Z,2.40
2018-08-10T16:16:50.307Z,5.67
2018-08-10T16:19:18.746Z,3.30
2018-08-10T16:21:47.069Z,2.37
2018-08-10T16:24:17.833Z,5.47
2018-08-10T16:26:46.400Z,4.00
2018-08-10T16:29:14.844Z,4.00
2018-08-10T16:31:43.276Z,2.47
2018-08-10T16:34:11.794Z,4.33
2018-08-10T16:36:40.276Z,1.97
2018-08-10T16:39:09.525Z,3.17
2018-08-10T16:41:37.920Z,2.80
2018-08-10T16:44:06.379Z,2.70
2018-08-10T16:46:34.848Z,4.47
2018-08-10T16:49:03.166Z,4.27
2018-08-10T16:51:31.489Z,2.33
2018-08-10T16:53:59.928Z,6.17
2018-08-10T16:56:28.436Z,6.13
2018-08-10T16:58:57.100Z,5.37
2018-08-10T17:01:25.878Z,4.27
2018-08-10T17:03:54.316Z,3.50
2018-08-10T17:06:22.995Z,3.17
2018-08-10T17:08:51.715Z,2.17
2018-08-10T17:11:20.228Z,3.23
2018-08-10T17:13:49.363Z,3.53
2018-08-10T17:16:17.838Z,3.50
2018-08-10T17:18:46.413Z,3.33
2018-08-10T17:21:16.078Z,4.37
2018-08-10T17:23:45.349Z,2.13
2018-08-10T17:26:13.924Z,5.17
2018-08-10T17:28:42.629Z,2.90
2018-08-10T17:31:10.947Z,4.73
2018-08-10T17:33:39.282Z,5.03
2018-08-10T17:36:07.578Z,3.47
2018-08-10T17:38:35.943Z,2.53
2018-08-10T17:41:05.055Z,3.60
2018-08-10T17:43:33.443Z,3.00
2018-08-10T17:46:01.847Z,6.13
2018-08-10T17:48:31.221Z,3.83
2018-08-10T17:50:59.655Z,3.73
2018-08-10T17:53:28.039Z,3.23
2018-08-10T17:55:56.310Z,4.17
2018-08-10T17:58:24.595Z,2.60
2018-08-10T18:00:53.458Z,1.67
2018-08-10T18:03:21.805Z,2.13
2018-08-10T18:05:50.474Z,6.07
2018-08-10T18:08:18.772Z,5.03
2018-08-10T18:10:47.129Z,7.50
2018-08-10T18:13:15.987Z,5.40
2018-08-10T18:15:44.300Z,2.67
2018-08-10T18:18:12.652Z,5.90
2018-08-10T18:20:41.079Z,4.37
2018-08-10T18:23:09.541Z,5.37
2018-08-10T18:25:37.940Z,3.07
2018-08-10T18:28:06.476Z,3.23
2018-08-10T18:30:34.903Z,2.33
2018-08-10T18:33:03.482Z,3.77
2018-08-10T18:35:31.929Z,4.33
2018-08-10T18:38:00.255Z,5.13
2018-08-10T18:40:28.840Z,5.07
2018-08-10T18:42:57.302Z,3.07
2018-08-10T18:45:25.680Z,6.93
2018-08-10T18:47:54.074Z,5.90
2018-08-10T18:50:22.503Z,2.90
2018-08-10T18:52:50.895Z,3.23
2018-08-10T18:55:21.307Z,4.17
2018-08-10T18:57:50.058Z,3.17
2018-08-10T19:00:20.325Z,3.70
2018-08-10T19:02:49.500Z,5.63
2018-08-10T19:05:18.418Z,7.00
2018-08-10T19:07:47.489Z,6.07
2018-08-10T19:10:17.987Z,3.63
2018-08-10T19:12:46.336Z,3.87
2018-08-10T19:15:14.727Z,7.77
2018-08-10T19:17:43.153Z,7.97
2018-08-10T19:20:12.178Z,3.20
2018-08-10T19:22:40.535Z,3.53
2018-08-10T19:25:10.647Z,4.23
2018-08-10T19:27:40.363Z,6.33
2018-08-10T19:30:12.285Z,6.17
2018-08-10T19:32:41.013Z,5.20
2018-08-10T19:35:09.407Z,4.57
2018-08-10T19:37:38.286Z,3.80
2018-08-10T19:40:08.943Z,5.13
2018-08-10T19:42:37.310Z,4.03
2018-08-10T19:45:07.030Z,4.47
2018-08-10T19:47:36.197Z,3.37
2018-08-10T19:50:06.021Z,4.17
2018-08-10T19:52:34.809Z,4.93
2018-08-10T19:55:06.223Z,5.20
2018-08-10T19:57:35.025Z,4.07
2018-08-10T20:00:04.540Z,6.33
2018-08-10T20:02:33.138Z,4.17
2018-08-10T20:05:01.716Z,4.57
2018-08-10T20:07:31.062Z,5.10
2018-08-10T20:09:59.520Z,7.30
2018-08-10T20:12:30.900Z,5.60
2018-08-10T20:14:59.262Z,6.30
2018-08-10T20:17:27.660Z,6.50
2018-08-10T20:19:55.976Z,5.53
2018-08-10T20:22:24.325Z,5.47
2018-08-10T20:24:52.666Z,4.37
2018-08-10T20:27:21.050Z,5.07
2018-08-10T20:29:49.420Z,5.30
2018-08-10T20:32:17.818Z,7.27
2018-08-10T20:34:45.963Z,5.20
2018-08-10T20:37:13.984Z,5.07
2018-08-10T20:39:42.615Z,7.37
2018-08-10T20:42:10.728Z,5.43
2018-08-10T20:44:38.796Z,5.40
2018-08-10T20:47:07.259Z,5.80
2018-08-10T20:49:35.665Z,5.13
2018-08-10T20:52:04.246Z,6.40
2018-08-10T20:54:32.378Z,4.43
2018-08-10T20:57:00.478Z,5.17
2018-08-10T20:59:28.846Z,4.97
2018-08-10T21:01:57.059Z,6.03
2018-08-10T21:04:25.451Z,5.77
2018-08-10T21:06:53.834Z,5.23
2018-08-10T21:09:22.230Z,4.60
2018-08-10T21:11:50.620Z,3.30
2018-08-10T21:14:18.958Z,4.87
2018-08-10T21:16:47.346Z,4.27
2018-08-10T21:19:15.823Z,5.33
2018-08-10T21:21:44.237Z,3.40
2018-08-10T21:24:12.357Z,4.17
2018-08-10T21:26:40.616Z,4.13
2018-08-10T21:29:08.811Z,5.20
2018-08-10T21:31:36.922Z,4.70
2018-08-10T21:34:05.095Z,4.70
2018-08-10T21:36:33.277Z,4.20
2018-08-10T21:39:01.379Z,5.57
2018-08-10T21:41:29.491Z,6.27
2018-08-10T21:43:57.663Z,5.13
2018-08-10T21:46:25.680Z,9.30
2018-08-10T21:48:54.098Z,16.60
2018-08-10T21:51:22.469Z,7.27
2018-08-10T21:53:50.932Z,6.27
2018-08-10T21:56:19.322Z,5.97
2018-08-10T21:58:47.789Z,6.10
2018-08-10T22:01:16.271Z,4.13
2018-08-10T22:03:44.605Z,4.13
2018-08-10T22:06:13.046Z,3.77
2018-08-10T22:08:41.363Z,4.17
2018-08-10T22:11:09.727Z,6.30
2018-08-10T22:13:46.190Z,7.17
2018-08-10T22:16:19.893Z,4.33
2018-08-10T22:18:53.549Z,5.27
2018-08-10T22:21:22.025Z,2.87
2018-08-10T22:23:50.434Z,4.53
2018-08-10T22:26:18.883Z,4.00
2018-08-10T22:31:39.036Z,5.57
2018-08-10T22:34:13.391Z,4.63
2018-08-10T22:36:41.507Z,3.23
2018-08-10T22:42:21.063Z,3.43
2018-08-10T22:44:49.159Z,6.03
2018-08-10T22:47:17.249Z,5.80
2018-08-10T22:49:45.432Z,2.50
2018-08-10T22:52:13.568Z,4.93
2018-08-10T22:54:41.660Z,3.40
2018-08-10T22:57:09.879Z,4.43
2018-08-10T22:59:37.982Z,5.30
2018-08-10T23:02:06.141Z,3.47
2018-08-10T23:04:34.243Z,3.43
2018-08-10T23:07:02.390Z,6.20
2018-08-10T23:09:31.713Z,4.97
2018-08-10T23:11:59.859Z,4.87
2018-08-10T23:14:28.000Z,6.03
2018-08-10T23:16:56.243Z,3.77
2018-08-10T23:19:24.363Z,4.67
2018-08-10T23:21:52.538Z,4.00
2018-08-10T23:24:20.654Z,3.70
2018-08-10T23:26:48.871Z,5.20
2018-08-10T23:29:17.006Z,2.93
2018-08-10T23:31:45.028Z,3.90
2018-08-10T23:34:13.157Z,3.40
2018-08-10T23:36:41.322Z,3.10
2018-08-10T23:39:10.886Z,3.27
2018-08-10T23:41:39.118Z,3.60
2018-08-10T23:44:07.357Z,4.27
2018-08-10T23:46:35.480Z,2.93
2018-08-10T23:49:04.283Z,3.80
2018-08-10T23:51:32.725Z,6.10
2018-08-10T23:54:00.792Z,3.67
2018-08-10T23:56:28.961Z,3.83
2018-08-10T23:58:57.126Z,5.10
